Time;durP1;ratioP1;P1;durP2;ratioP2;P2;SDS_P1;SDS_P2;PMS_P1;PMS_P2;Temp;Humidity;BMP_temperature;BMP_pressure;BME280_temperature;BME280_humidity;BME280_pressure;Samples;Min_cycle;Max_cycle;Signal;HPM_P1;HPM_P2
2023/03/19 00:02:00;;;;;;;10.52;6.95;;;11.30;84.30;;;;;;5029993;28;20037;-65
2023/03/19 00:04:26;;;;;;;13.43;7.13;;;11.30;84.40;;;;;;5033398;28;20516;-65
2023/03/19 00:06:52;;;;;;;14.27;7.45;;;11.30;84.70;;;;;;5035518;28;20544;-65
2023/03/19 00:09:20;;;;;;;14.68;6.82;;;11.30;84.70;;;;;;5031410;28;20060;-65
2023/03/19 00:11:46;;;;;;;13.45;7.03;;;11.30;84.40;;;;;;5033673;28;20902;-65
2023/03/19 00:14:12;;;;;;;12.75;7.20;;;11.20;84.70;;;;;;5035565;28;20040;-65
2023/03/19 00:16:37;;;;;;;12.27;7.43;;;11.20;84.70;;;;;;5035318;28;20052;-65
2023/03/19 00:19:03;;;;;;;15.65;7.43;;;11.20;85.10;;;;;;5037840;28;20054;-65
2023/03/19 00:21:30;;;;;;;11.77;6.75;;;11.20;84.90;;;;;;5037320;28;20036;-65
2023/03/19 00:24:01;;;;;;;16.10;7.75;;;11.10;84.90;;;;;;5035651;28;20037;-65
2023/03/19 00:26:33;;;;;;;11.75;7.00;;;11.10;85.00;;;;;;5032305;28;20051;-65
2023/03/19 00:29:00;;;;;;;11.73;7.05;;;11.10;85.40;;;;;;5030910;28;20029;-65
2023/03/19 00:31:27;;;;;;;13.60;7.65;;;11.00;85.20;;;;;;5038953;28;20450;-65
2023/03/19 00:33:56;;;;;;;13.98;8.07;;;11.00;85.30;;;;;;5040566;28;20025;-65
2023/03/19 00:36:22;;;;;;;13.40;7.18;;;11.00;85.50;;;;;;5041669;28;20052;-65
2023/03/19 00:38:48;;;;;;;16.67;8.15;;;10.90;85.70;;;;;;5044010;28;20051;-65
2023/03/19 00:41:16;;;;;;;12.68;7.57;;;10.90;85.80;;;;;;5038998;28;20036;-65
2023/03/19 00:43:41;;;;;;;14.65;7.60;;;10.90;85.90;;;;;;5028348;28;20056;-66
2023/03/19 00:46:07;;;;;;;11.30;6.63;;;10.80;85.80;;;;;;5033185;28;20028;-65
2023/03/19 00:48:33;;;;;;;15.27;7.78;;;10.80;85.90;;;;;;5035059;28;20029;-65
2023/03/19 00:51:07;;;;;;;14.35;8.20;;;10.80;86.10;;;;;;5036478;28;20048;-65
2023/03/19 00:53:38;;;;;;;12.27;7.18;;;10.70;86.10;;;;;;5036767;28;20694;-66
2023/03/19 00:56:04;;;;;;;15.55;8.13;;;10.70;85.90;;;;;;5037688;28;20033;-65
2023/03/19 00:58:30;;;;;;;15.63;8.38;;;10.70;85.80;;;;;;5041737;28;20448;-65
2023/03/19 01:00:56;;;;;;;14.35;8.05;;;10.60;85.70;;;;;;5036775;28;20075;-65
2023/03/19 01:03:22;;;;;;;18.60;9.05;;;10.60;86.10;;;;;;5036250;28;20033;-65
2023/03/19 01:05:48;;;;;;;16.05;8.15;;;10.50;86.00;;;;;;5042112;28;20066;-65
2023/03/19 01:08:15;;;;;;;13.25;7.03;;;10.60;86.20;;;;;;5044220;28;20033;-66
2023/03/19 01:10:41;;;;;;;14.32;7.97;;;10.50;86.20;;;;;;5043977;28;20483;-65
2023/03/19 01:13:07;;;;;;;16.20;8.52;;;10.50;86.50;;;;;;5044288;28;20025;-66
2023/03/19 01:15:41;;;;;;;13.63;8.15;;;10.50;86.40;;;;;;5040016;28;20025;-66
2023/03/19 01:18:09;;;;;;;16.25;7.88;;;10.40;86.30;;;;;;5040802;28;20033;-66
2023/03/19 01:20:37;;;;;;;13.63;7.78;;;10.40;86.50;;;;;;5041821;28;20453;-66
2023/03/19 01:23:04;;;;;;;12.45;8.25;;;10.40;86.70;;;;;;5040366;28;20032;-66
2023/03/19 01:25:30;;;;;;;13.85;8.13;;;10.30;86.50;;;;;;5035406;28;20044;-65
2023/03/19 01:28:04;;;;;;;13.38;7.50;;;10.30;86.60;;;;;;5034218;28;20415;-64
2023/03/19 01:30:30;;;;;;;14.77;7.88;;;10.40;86.60;;;;;;5039638;28;20033;-64
2023/03/19 01:33:13;;;;;;;13.60;7.90;;;10.30;86.70;;;;;;5032287;28;20358;-64
2023/03/19 01:35:58;;;;;;;14.75;8.45;;;10.40;86.70;;;;;;5040100;28;20559;-66
2023/03/19 01:38:28;;;;;;;13.85;7.97;;;10.40;86.50;;;;;;5039490;28;20036;-65
2023/03/19 01:41:00;;;;;;;20.60;8.80;;;10.40;86.50;;;;;;5017643;28;20367;-65
2023/03/19 01:43:29;;;;;;;15.65;9.20;;;10.40;86.60;;;;;;5033894;28;20608;-65
2023/03/19 01:46:33;;;;;;;14.88;8.27;;;10.40;86.20;;;;;;5032834;28;20524;-65
2023/03/19 01:49:21;;;;;;;12.88;8.18;;;10.40;86.30;;;;;;5040265;28;20056;-65
2023/03/19 01:51:54;;;;;;;16.55;8.30;;;10.50;86.30;;;;;;5036769;28;20063;-66
2023/03/19 01:54:32;;;;;;;15.15;8.50;;;10.50;85.90;;;;;;5028069;28;20121;-65
2023/03/19 01:57:19;;;;;;;13.23;8.18;;;10.50;85.80;;;;;;5038584;28;20118;-65
2023/03/19 02:00:08;;;;;;;15.65;8.82;;;10.50;85.70;;;;;;5034734;28;20659;-65
2023/03/19 02:02:48;;;;;;;17.67;8.60;;;10.50;85.50;;;;;;5043156;28;20432;-65
2023/03/19 02:05:50;;;;;;;13.85;8.90;;;10.50;85.20;;;;;;5039583;28;20041;-65
2023/03/19 02:08:21;;;;;;;13.13;8.00;;;10.60;84.80;;;;;;5034346;28;20044;-65
2023/03/19 02:10:49;;;;;;;18.38;8.98;;;10.60;84.80;;;;;;5032831;28;20067;-65
2023/03/19 02:13:15;;;;;;;14.57;8.45;;;10.60;84.80;;;;;;5035011;28;20422;-65
2023/03/19 02:15:41;;;;;;;13.35;8.27;;;10.60;84.80;;;;;;5033770;28;20029;-65
2023/03/19 02:18:08;;;;;;;16.85;9.05;;;10.60;84.50;;;;;;5033886;28;20044;-65
2023/03/19 02:20:47;;;;;;;16.38;9.23;;;10.60;84.20;;;;;;5031761;28;20046;-65
2023/03/19 02:23:33;;;;;;;16.38;8.80;;;10.60;84.40;;;;;;5035446;28;20032;-65
2023/03/19 02:26:06;;;;;;;16.33;8.95;;;10.50;84.70;;;;;;5035700;28;20056;-65
2023/03/19 02:28:35;;;;;;;14.70;8.73;;;10.60;84.60;;;;;;5030417;28;20033;-65
2023/03/19 02:31:01;;;;;;;18.48;9.23;;;10.50;84.50;;;;;;5036807;28;20048;-65
2023/03/19 02:33:28;;;;;;;18.10;8.65;;;10.50;84.70;;;;;;5031632;28;20033;-65
2023/03/19 02:35:55;;;;;;;17.55;10.18;;;10.50;84.70;;;;;;5033637;28;20033;-65
2023/03/19 02:38:23;;;;;;;15.52;8.18;;;10.50;84.70;;;;;;5036509;28;20041;-65
2023/03/19 02:41:07;;;;;;;18.27;9.60;;;10.40;84.60;;;;;;5037514;28;20056;-65
2023/03/19 02:43:36;;;;;;;17.65;8.63;;;10.50;84.90;;;;;;5035251;28;20063;-65
2023/03/19 02:46:05;;;;;;;16.20;9.40;;;10.40;84.90;;;;;;5033785;28;20041;-65
2023/03/19 02:48:31;;;;;;;17.65;8.93;;;10.40;84.60;;;;;;5039155;28;20099;-65
2023/03/19 02:50:58;;;;;;;17.95;10.00;;;10.50;84.40;;;;;;5038918;28;20041;-65
2023/03/19 02:53:24;;;;;;;16.58;9.40;;;10.50;85.40;;;;;;5034402;28;20128;-65
2023/03/19 02:55:51;;;;;;;16.63;9.30;;;10.60;85.20;;;;;;5031916;28;20038;-65
2023/03/19 02:58:17;;;;;;;12.55;8.20;;;10.60;85.50;;;;;;5038055;28;20037;-65
2023/03/19 03:00:43;;;;;;;14.38;8.85;;;10.60;85.70;;;;;;5040808;28;20682;-65
2023/03/19 03:03:10;;;;;;;14.93;8.57;;;10.70;86.00;;;;;;5035274;28;20111;-65
2023/03/19 03:05:36;;;;;;;16.70;9.77;;;10.70;86.70;;;;;;5036861;28;20171;-65
2023/03/19 03:08:03;;;;;;;14.57;8.38;;;10.70;87.60;;;;;;5032932;28;20215;-65
2023/03/19 03:10:31;;;;;;;15.80;8.75;;;10.60;88.60;;;;;;5034569;28;20029;-65
2023/03/19 03:12:57;;;;;;;15.45;9.70;;;10.60;89.20;;;;;;5034670;28;20111;-66
2023/03/19 03:15:24;;;;;;;16.48;10.13;;;10.60;89.90;;;;;;5042975;28;20060;-65
2023/03/19 03:17:50;;;;;;;17.33;9.30;;;10.60;90.10;;;;;;5043980;28;20039;-65
2023/03/19 03:20:16;;;;;;;17.15;10.68;;;10.50;90.30;;;;;;5041054;28;20032;-65
2023/03/19 03:22:43;;;;;;;16.92;9.63;;;10.50;90.70;;;;;;5036870;28;20044;-65
2023/03/19 03:25:10;;;;;;;20.85;11.30;;;10.50;91.50;;;;;;5044532;28;20056;-65
2023/03/19 03:27:36;;;;;;;20.88;11.60;;;10.40;92.20;;;;;;5032277;28;20111;-65
2023/03/19 03:30:04;;;;;;;19.70;10.98;;;10.40;92.70;;;;;;5038188;28;20026;-65
2023/03/19 03:32:34;;;;;;;17.25;10.45;;;10.40;93.00;;;;;;5036753;28;20025;-65
2023/03/19 03:35:00;;;;;;;19.55;11.10;;;10.30;93.60;;;;;;5043317;28;20033;-65
2023/03/19 03:37:26;;;;;;;17.05;10.40;;;10.30;94.20;;;;;;5039656;28;20726;-65
2023/03/19 03:39:52;;;;;;;21.17;12.05;;;10.20;94.70;;;;;;5041402;28;20040;-66
2023/03/19 03:42:18;;;;;;;19.02;11.60;;;10.20;95.20;;;;;;5041228;28;20063;-65
2023/03/19 03:44:44;;;;;;;21.88;12.73;;;10.10;95.60;;;;;;5034770;28;20777;-65
2023/03/19 03:47:11;;;;;;;21.55;12.25;;;10.10;96.20;;;;;;5034921;28;20177;-65
2023/03/19 03:49:37;;;;;;;18.67;10.70;;;10.00;96.60;;;;;;5031310;28;20083;-65
2023/03/19 03:52:03;;;;;;;23.30;11.75;;;9.90;96.90;;;;;;5039177;28;20560;-65
2023/03/19 03:54:29;;;;;;;25.98;13.23;;;9.80;97.40;;;;;;5031704;28;20067;-65
2023/03/19 03:56:55;;;;;;;18.45;11.27;;;9.80;97.90;;;;;;5029902;28;20056;-65
2023/03/19 03:59:23;;;;;;;23.63;13.13;;;9.80;98.20;;;;;;5037056;28;20123;-65
2023/03/19 04:01:48;;;;;;;17.70;10.88;;;9.70;98.60;;;;;;5039264;28;20051;-65
2023/03/19 04:04:14;;;;;;;24.63;12.77;;;9.70;98.70;;;;;;5030163;28;20041;-65
2023/03/19 04:06:40;;;;;;;20.27;12.15;;;9.70;99.20;;;;;;5029719;28;20037;-65
2023/03/19 04:09:26;;;;;;;20.45;12.52;;;9.70;99.30;;;;;;5021728;28;20060;-65
2023/03/19 04:11:52;;;;;;;20.30;11.07;;;9.80;99.50;;;;;;5026646;28;20743;-65
2023/03/19 04:14:18;;;;;;;18.77;11.77;;;9.70;99.60;;;;;;5034087;28;20059;-64
2023/03/19 04:16:44;;;;;;;22.33;12.00;;;9.60;99.90;;;;;;5034140;28;20877;-65
2023/03/19 04:19:10;;;;;;;23.67;13.15;;;9.70;99.90;;;;;;5039290;28;20112;-65
2023/03/19 04:21:36;;;;;;;21.55;11.70;;;9.70;99.90;;;;;;5031169;28;20148;-65
2023/03/19 04:24:02;;;;;;;19.15;11.05;;;9.60;99.40;;;;;;5026307;28;20701;-66
2023/03/19 04:26:28;;;;;;;23.45;12.50;;;9.50;99.70;;;;;;5029609;28;20043;-66
2023/03/19 04:28:54;;;;;;;25.27;12.18;;;9.50;99.90;;;;;;5033952;28;20029;-65
2023/03/19 04:31:20;;;;;;;21.67;11.85;;;9.60;99.90;;;;;;5036658;28;20406;-65
2023/03/19 04:33:48;;;;;;;20.23;11.93;;;9.60;99.90;;;;;;5032304;28;20055;-65
2023/03/19 04:36:13;;;;;;;25.25;13.35;;;9.70;99.90;;;;;;5033899;28;20025;-65
2023/03/19 04:38:40;;;;;;;23.33;13.55;;;9.80;99.90;;;;;;5031637;28;20539;-65
2023/03/19 04:41:06;;;;;;;23.17;13.35;;;9.80;99.90;;;;;;5031669;28;20037;-65
2023/03/19 04:43:34;;;;;;;21.65;11.90;;;9.80;99.90;;;;;;5027759;28;20040;-65
2023/03/19 04:46:03;;;;;;;22.65;12.20;;;9.70;99.90;;;;;;5030603;28;20044;-65
2023/03/19 04:48:30;;;;;;;21.45;12.35;;;9.70;99.90;;;;;;5024661;28;20034;-65
2023/03/19 04:50:57;;;;;;;20.25;11.80;;;9.70;99.90;;;;;;5015877;28;20032;-65
2023/03/19 04:53:26;;;;;;;19.92;11.73;;;9.70;99.90;;;;;;5029463;28;20025;-65
2023/03/19 04:55:52;;;;;;;20.95;10.90;;;9.70;99.90;;;;;;5025254;28;20038;-65
2023/03/19 04:58:19;;;;;;;16.85;10.15;;;9.60;99.90;;;;;;5029596;28;20040;-65
2023/03/19 05:00:52;;;;;;;18.48;11.52;;;9.70;99.90;;;;;;5031767;28;20037;-65
2023/03/19 05:03:23;;;;;;;19.33;12.07;;;9.70;99.90;;;;;;5032262;28;20032;-65
2023/03/19 05:05:49;;;;;;;21.10;12.35;;;9.70;99.90;;;;;;5026388;28;20071;-65
2023/03/19 05:08:16;;;;;;;18.65;11.82;;;9.70;99.90;;;;;;5033628;28;20040;-65
2023/03/19 05:10:41;;;;;;;22.13;11.50;;;9.70;99.90;;;;;;5029799;28;20034;-65
2023/03/19 05:13:08;;;;;;;18.50;10.88;;;9.60;99.90;;;;;;5035215;28;20770;-65
2023/03/19 05:15:42;;;;;;;21.38;11.35;;;9.60;99.90;;;;;;5036087;28;20072;-65
2023/03/19 05:18:09;;;;;;;17.70;10.73;;;9.70;99.90;;;;;;5038966;28;20029;-66
2023/03/19 05:20:41;;;;;;;19.73;11.30;;;9.70;99.90;;;;;;5034706;28;20033;-65
2023/03/19 05:23:16;;;;;;;18.83;10.63;;;9.70;99.90;;;;;;5034602;28;20083;-66
2023/03/19 05:25:48;;;;;;;18.58;10.90;;;9.70;99.90;;;;;;5027022;28;20355;-65
2023/03/19 05:28:20;;;;;;;18.13;10.85;;;9.80;99.90;;;;;;5040981;28;20038;-66
2023/03/19 05:30:46;;;;;;;16.35;9.55;;;9.80;99.90;;;;;;5031460;28;20572;-65
2023/03/19 05:33:34;;;;;;;15.82;11.00;;;9.80;99.90;;;;;;5036073;28;20029;-66
2023/03/19 05:36:00;;;;;;;18.77;11.13;;;9.80;99.90;;;;;;5038002;28;20553;-66
2023/03/19 05:38:38;;;;;;;20.42;11.23;;;9.80;99.90;;;;;;5036523;28;20047;-66
2023/03/19 05:41:08;;;;;;;16.42;10.25;;;9.80;99.90;;;;;;5032512;28;20686;-65
2023/03/19 05:44:03;;;;;;;19.30;10.50;;;9.80;99.90;;;;;;5036827;28;20037;-65
2023/03/19 05:46:52;;;;;;;17.60;10.52;;;9.80;99.90;;;;;;5033653;28;20101;-65
2023/03/19 05:49:19;;;;;;;17.33;9.85;;;9.70;99.90;;;;;;5032358;28;20512;-65
2023/03/19 05:51:45;;;;;;;18.50;10.07;;;9.80;99.90;;;;;;5030254;28;20036;-65
2023/03/19 05:54:11;;;;;;;17.85;10.50;;;9.80;99.90;;;;;;5033946;28;20033;-65
2023/03/19 05:56:55;;;;;;;23.40;10.82;;;9.80;99.90;;;;;;5036326;28;20110;-66
2023/03/19 05:59:34;;;;;;;17.38;10.40;;;9.90;99.90;;;;;;5031505;28;20325;-65
2023/03/19 06:02:19;;;;;;;24.45;11.13;;;9.90;99.90;;;;;;5037507;28;20071;-65
2023/03/19 06:04:46;;;;;;;19.55;10.85;;;9.80;99.90;;;;;;5030301;28;20037;-65
2023/03/19 06:07:13;;;;;;;20.67;11.98;;;9.70;99.90;;;;;;5026536;28;20064;-64
2023/03/19 06:09:40;;;;;;;20.02;11.10;;;9.70;99.90;;;;;;5028382;28;20474;-65
2023/03/19 06:12:07;;;;;;;20.02;11.20;;;9.70;99.90;;;;;;5038473;28;20090;-64
2023/03/19 06:14:51;;;;;;;21.23;11.52;;;9.70;99.90;;;;;;5033333;28;20039;-63
2023/03/19 06:17:46;;;;;;;20.13;10.88;;;9.70;99.90;;;;;;5040382;28;20052;-63
2023/03/19 06:20:15;;;;;;;19.90;11.15;;;9.80;99.90;;;;;;5028867;28;20671;-65
2023/03/19 06:22:42;;;;;;;20.42;11.80;;;9.80;99.90;;;;;;5031129;28;20029;-65
2023/03/19 06:25:08;;;;;;;23.27;11.75;;;10.00;99.90;;;;;;5024533;28;20731;-65
2023/03/19 06:27:36;;;;;;;17.10;11.50;;;10.00;99.90;;;;;;5034678;28;20125;-65
2023/03/19 06:30:25;;;;;;;16.80;10.25;;;10.00;99.90;;;;;;5029796;28;20641;-65
2023/03/19 06:32:52;;;;;;;19.52;11.77;;;10.00;99.90;;;;;;5030336;28;20156;-63
2023/03/19 06:35:18;;;;;;;19.70;11.98;;;10.10;99.90;;;;;;5030523;28;20044;-65
2023/03/19 06:37:47;;;;;;;17.50;10.35;;;10.10;99.90;;;;;;5033600;28;20804;-65
2023/03/19 06:40:14;;;;;;;18.75;11.07;;;10.10;99.90;;;;;;5032432;28;20043;-65
2023/03/19 06:42:44;;;;;;;18.35;11.10;;;10.20;99.90;;;;;;5029182;28;20036;-65
2023/03/19 06:45:11;;;;;;;15.52;10.13;;;10.20;99.90;;;;;;5038656;28;20170;-65
2023/03/19 06:47:39;;;;;;;20.95;13.20;;;10.30;99.90;;;;;;5024075;28;20041;-64
2023/03/19 06:50:05;;;;;;;18.20;10.63;;;10.30;99.90;;;;;;5029884;28;20025;-65
2023/03/19 06:52:30;;;;;;;14.35;9.82;;;10.40;99.90;;;;;;5025529;28;20130;-65
2023/03/19 06:54:56;;;;;;;19.73;11.13;;;10.40;99.90;;;;;;5037166;28;20484;-65
2023/03/19 06:57:22;;;;;;;17.08;11.38;;;10.40;99.90;;;;;;5030547;28;20132;-64
2023/03/19 06:59:48;;;;;;;17.85;10.57;;;10.50;99.90;;;;;;5029497;28;20041;-65
2023/03/19 07:02:14;;;;;;;16.13;10.05;;;10.50;99.90;;;;;;5029521;28;20041;-65
2023/03/19 07:04:39;;;;;;;17.38;10.50;;;10.50;99.90;;;;;;5029089;28;20029;-65
2023/03/19 07:07:05;;;;;;;15.32;10.35;;;10.50;99.90;;;;;;5024447;28;20523;-64
2023/03/19 07:09:31;;;;;;;17.02;10.68;;;10.50;99.90;;;;;;5020876;28;20128;-65
2023/03/19 07:11:57;;;;;;;15.43;9.55;;;10.50;99.90;;;;;;5023625;28;20065;-65
2023/03/19 07:14:23;;;;;;;15.20;9.70;;;10.60;99.90;;;;;;5030757;28;20064;-64
2023/03/19 07:16:49;;;;;;;17.38;11.35;;;10.60;99.90;;;;;;5029631;28;20029;-65
2023/03/19 07:19:15;;;;;;;18.45;11.43;;;10.70;99.90;;;;;;5025439;28;20046;-65
2023/03/19 07:21:41;;;;;;;15.95;10.95;;;10.80;99.90;;;;;;5026654;28;20045;-65
2023/03/19 07:24:07;;;;;;;19.10;10.98;;;10.80;99.90;;;;;;5029466;28;20041;-66
2023/03/19 07:26:32;;;;;;;19.77;10.85;;;10.90;99.90;;;;;;5024986;28;20129;-64
2023/03/19 07:28:58;;;;;;;15.48;10.60;;;10.90;99.90;;;;;;5030735;28;20032;-65
2023/03/19 07:31:24;;;;;;;17.45;11.40;;;10.90;99.90;;;;;;5025538;28;20025;-66
2023/03/19 07:33:50;;;;;;;17.05;10.65;;;11.00;99.90;;;;;;5031254;28;20549;-66
2023/03/19 07:36:16;;;;;;;17.60;10.75;;;11.00;99.90;;;;;;5033861;28;20064;-66
2023/03/19 07:38:41;;;;;;;17.90;10.73;;;11.00;99.90;;;;;;5035412;28;20036;-65
2023/03/19 07:41:07;;;;;;;16.02;10.27;;;10.90;99.90;;;;;;5032165;28;20087;-65
2023/03/19 07:43:33;;;;;;;16.80;10.48;;;10.90;99.90;;;;;;5039229;28;20037;-65
2023/03/19 07:45:59;;;;;;;17.02;10.05;;;11.00;99.90;;;;;;5036447;28;20039;-65
2023/03/19 07:48:25;;;;;;;15.63;9.80;;;11.00;99.90;;;;;;5035631;28;20124;-65
2023/03/19 07:50:51;;;;;;;19.70;10.88;;;11.10;99.90;;;;;;5028333;28;20033;-65
2023/03/19 07:53:17;;;;;;;18.65;11.50;;;11.10;99.90;;;;;;5031919;28;20036;-65
2023/03/19 07:55:43;;;;;;;15.32;10.40;;;11.00;99.90;;;;;;5035222;28;20037;-64
2023/03/19 07:58:10;;;;;;;17.20;10.65;;;11.10;99.90;;;;;;5033241;28;20033;-65
2023/03/19 08:00:35;;;;;;;17.63;9.82;;;11.00;99.90;;;;;;5033287;28;21067;-69
2023/03/19 08:03:01;;;;;;;15.52;11.00;;;11.00;99.90;;;;;;5028067;28;20045;-66
2023/03/19 08:05:27;;;;;;;20.30;10.80;;;10.90;99.90;;;;;;5025337;28;20063;-68
2023/03/19 08:07:53;;;;;;;18.20;10.88;;;10.90;99.90;;;;;;5027543;28;20033;-69
2023/03/19 08:10:18;;;;;;;18.98;10.27;;;10.90;99.90;;;;;;5024698;28;20055;-69
2023/03/19 08:12:44;;;;;;;15.48;10.15;;;10.80;99.90;;;;;;5024083;28;20506;-68
2023/03/19 08:15:11;;;;;;;18.38;10.93;;;10.80;99.90;;;;;;5024843;28;20064;-68
2023/03/19 08:17:37;;;;;;;16.55;9.75;;;10.80;99.90;;;;;;5028018;28;20061;-68
2023/03/19 08:20:09;;;;;;;17.98;11.70;;;10.90;99.90;;;;;;5026851;28;20021;-69
2023/03/19 08:22:35;;;;;;;17.02;11.00;;;11.00;99.90;;;;;;5026361;28;20172;-69
2023/03/19 08:25:02;;;;;;;20.60;11.48;;;11.10;99.90;;;;;;5024285;28;20141;-68
2023/03/19 08:27:30;;;;;;;19.25;11.70;;;11.20;99.90;;;;;;5024771;28;20029;-68
2023/03/19 08:29:57;;;;;;;20.80;11.20;;;11.30;99.90;;;;;;5023974;28;20053;-69
2023/03/19 08:32:23;;;;;;;17.33;11.45;;;11.40;99.90;;;;;;5024332;28;20059;-65
2023/03/19 08:34:50;;;;;;;18.25;11.57;;;11.50;99.90;;;;;;5028419;28;20402;-65
2023/03/19 08:37:16;;;;;;;19.45;11.95;;;11.50;99.90;;;;;;5034426;28;20037;-65
2023/03/19 08:39:42;;;;;;;17.27;10.30;;;11.40;99.90;;;;;;5031678;28;20441;-65
2023/03/19 08:42:07;;;;;;;20.55;10.57;;;11.40;99.90;;;;;;5035638;28;20111;-65
2023/03/19 08:44:33;;;;;;;17.52;10.20;;;11.40;99.90;;;;;;5030920;28;20029;-65
2023/03/19 08:46:59;;;;;;;16.98;10.40;;;11.20;99.90;;;;;;5028550;28;20025;-65
2023/03/19 08:49:24;;;;;;;19.25;10.27;;;11.20;99.90;;;;;;5027891;28;20137;-65
2023/03/19 08:51:50;;;;;;;14.30;9.57;;;11.00;99.90;;;;;;5031209;28;20703;-65
2023/03/19 08:54:16;;;;;;;17.00;10.35;;;11.10;99.90;;;;;;5030500;28;20052;-65
2023/03/19 08:56:42;;;;;;;16.88;10.38;;;11.10;99.90;;;;;;5033135;28;20627;-65
2023/03/19 08:59:08;;;;;;;19.25;9.98;;;11.10;99.90;;;;;;5025797;28;20041;-65
2023/03/19 09:01:35;;;;;;;14.70;9.98;;;11.20;99.90;;;;;;5030445;28;20037;-65
2023/03/19 09:04:01;;;;;;;19.23;10.77;;;11.30;99.90;;;;;;5031672;28;20032;-65
2023/03/19 09:06:27;;;;;;;15.60;10.07;;;11.40;99.90;;;;;;5033087;28;20048;-65
2023/03/19 09:08:52;;;;;;;17.05;10.13;;;11.50;99.90;;;;;;5027568;28;20881;-66
2023/03/19 09:11:18;;;;;;;13.80;10.27;;;11.60;99.90;;;;;;5031317;28;20116;-65
2023/03/19 09:13:44;;;;;;;16.42;10.40;;;11.70;99.90;;;;;;5029137;28;20127;-65
2023/03/19 09:16:10;;;;;;;17.00;9.93;;;11.80;99.90;;;;;;5032645;28;20036;-65
2023/03/19 09:18:36;;;;;;;19.05;10.32;;;11.80;99.90;;;;;;5030181;28;20077;-65
2023/03/19 09:21:02;;;;;;;15.45;9.57;;;11.90;99.90;;;;;;5029016;28;20045;-65
2023/03/19 09:23:28;;;;;;;13.93;9.90;;;12.00;99.90;;;;;;5034139;28;20036;-66
2023/03/19 09:25:54;;;;;;;16.85;9.57;;;12.20;99.90;;;;;;5029794;28;20029;-66
2023/03/19 09:28:20;;;;;;;14.52;9.05;;;12.20;99.90;;;;;;5036394;28;20640;-66
2023/03/19 09:30:46;;;;;;;15.88;10.27;;;12.30;99.90;;;;;;5031097;28;20033;-66
2023/03/19 09:33:13;;;;;;;15.40;9.20;;;12.40;99.90;;;;;;5027755;28;20029;-65
2023/03/19 09:35:39;;;;;;;14.75;9.40;;;12.50;99.90;;;;;;5033277;28;20482;-66
2023/03/19 09:38:05;;;;;;;16.02;9.52;;;12.60;99.90;;;;;;5038641;28;20037;-65
2023/03/19 09:41:13;;;;;;;14.10;8.77;;;12.60;99.90;;;;;;5037330;28;20078;-66
2023/03/19 09:44:00;;;;;;;13.20;8.73;;;12.60;99.90;;;;;;5031939;28;20079;-67
2023/03/19 09:46:35;;;;;;;13.63;8.35;;;12.60;99.90;;;;;;5026485;28;20044;-66
2023/03/19 09:49:15;;;;;;;13.00;8.77;;;12.70;99.90;;;;;;5025805;28;20077;-65
2023/03/19 09:51:53;;;;;;;12.15;8.15;;;12.90;99.90;;;;;;5041423;28;20120;-66
2023/03/19 09:54:29;;;;;;;13.32;8.48;;;13.20;99.90;;;;;;5043113;28;20033;-65
2023/03/19 09:56:55;;;;;;;13.15;8.63;;;13.30;99.90;;;;;;5035297;28;20167;-66
2023/03/19 09:59:23;;;;;;;17.58;9.57;;;13.40;99.90;;;;;;5034334;28;20370;-66
2023/03/19 10:02:14;;;;;;;11.57;7.63;;;13.50;99.90;;;;;;5031878;28;20033;-66
2023/03/19 10:04:51;;;;;;;12.13;7.68;;;13.50;99.90;;;;;;5028581;28;20037;-66
2023/03/19 10:07:32;;;;;;;14.13;8.32;;;13.60;99.90;;;;;;5026528;28;20037;-66
2023/03/19 10:10:03;;;;;;;13.55;8.35;;;13.60;99.90;;;;;;5026461;28;20800;-66
2023/03/19 10:12:45;;;;;;;13.32;8.63;;;13.60;99.90;;;;;;5033521;28;20809;-65
2023/03/19 10:15:20;;;;;;;17.23;8.73;;;13.70;99.90;;;;;;5035519;28;20056;-66
2023/03/19 10:18:01;;;;;;;14.98;8.48;;;13.80;99.90;;;;;;5027572;28;20037;-66
2023/03/19 10:20:45;;;;;;;18.17;10.05;;;13.80;99.90;;;;;;5034321;28;20127;-66
2023/03/19 10:23:24;;;;;;;20.55;8.93;;;13.80;99.90;;;;;;5032902;28;20564;-66
2023/03/19 10:25:54;;;;;;;15.43;9.55;;;13.70;99.90;;;;;;5028790;28;20490;-64
2023/03/19 10:28:21;;;;;;;15.75;8.63;;;13.80;99.90;;;;;;5028115;28;20066;-66
2023/03/19 10:31:10;;;;;;;13.80;8.80;;;13.80;99.90;;;;;;5029878;28;20113;-66
2023/03/19 10:33:56;;;;;;;12.18;8.23;;;13.80;99.90;;;;;;5029971;28;20556;-66
2023/03/19 10:36:29;;;;;;;13.18;7.90;;;13.90;99.90;;;;;;5034672;28;20033;-66
2023/03/19 10:38:55;;;;;;;12.82;7.95;;;13.80;99.90;;;;;;5031314;28;20520;-66
2023/03/19 10:41:39;;;;;;;13.10;8.27;;;13.70;99.90;;;;;;5031009;28;20036;-66
2023/03/19 10:44:16;;;;;;;11.93;8.10;;;13.70;99.90;;;;;;5027469;28;20118;-66
2023/03/19 10:46:42;;;;;;;11.25;6.53;;;13.80;99.90;;;;;;5030044;28;20034;-65
2023/03/19 10:49:13;;;;;;;10.93;7.43;;;13.90;99.90;;;;;;5030922;28;20060;-66
2023/03/19 10:51:41;;;;;;;9.68;7.00;;;14.20;99.90;;;;;;5025798;28;20029;-65
2023/03/19 10:54:25;;;;;;;10.85;6.90;;;14.60;99.90;;;;;;5029218;28;20036;-65
2023/03/19 10:56:54;;;;;;;12.05;6.88;;;14.60;99.90;;;;;;5036754;28;20036;-66
2023/03/19 10:59:29;;;;;;;10.43;7.28;;;14.60;99.90;;;;;;5032353;28;20044;-66
2023/03/19 11:01:57;;;;;;;14.48;7.57;;;14.70;99.90;;;;;;5024006;28;20095;-66
2023/03/19 11:04:25;;;;;;;11.48;6.82;;;14.50;99.80;;;;;;5024366;28;20480;-65
2023/03/19 11:06:54;;;;;;;10.98;6.57;;;14.40;99.90;;;;;;5028168;28;20040;-66
2023/03/19 11:09:26;;;;;;;13.00;7.10;;;14.50;99.90;;;;;;5034032;28;20094;-65
2023/03/19 11:12:05;;;;;;;14.00;7.03;;;14.60;99.90;;;;;;5034393;28;20495;-66
2023/03/19 11:14:37;;;;;;;9.27;6.63;;;14.70;99.90;;;;;;5026690;28;20065;-65
2023/03/19 11:17:20;;;;;;;10.48;6.45;;;14.70;99.90;;;;;;5027989;28;20060;-66
2023/03/19 11:19:57;;;;;;;12.07;6.75;;;14.70;99.90;;;;;;5024194;28;20037;-66
2023/03/19 11:22:36;;;;;;;12.05;6.07;;;14.80;99.10;;;;;;5029272;28;20040;-66
2023/03/19 11:25:27;;;;;;;13.48;7.13;;;14.70;99.60;;;;;;5028387;28;20041;-66
2023/03/19 11:28:11;;;;;;;10.13;5.85;;;14.60;99.90;;;;;;5029610;28;20037;-66
2023/03/19 11:31:09;;;;;;;9.52;6.68;;;14.70;99.80;;;;;;5026598;28;20029;-66
2023/03/19 11:33:58;;;;;;;10.10;6.57;;;14.80;99.40;;;;;;5034293;28;20036;-66
2023/03/19 11:36:38;;;;;;;11.98;6.55;;;14.70;98.80;;;;;;5031863;28;20056;-66
2023/03/19 11:39:09;;;;;;;8.90;6.15;;;14.70;99.40;;;;;;5037120;28;20462;-66
2023/03/19 11:42:04;;;;;;;12.65;7.10;;;14.70;99.50;;;;;;5032587;28;20390;-66
2023/03/19 11:44:41;;;;;;;8.68;5.68;;;14.70;99.80;;;;;;5024816;28;20037;-66
2023/03/19 11:47:27;;;;;;;9.82;5.85;;;14.80;99.80;;;;;;5025372;28;20756;-66
2023/03/19 11:50:16;;;;;;;11.57;6.35;;;14.90;99.40;;;;;;5028527;28;20753;-66
2023/03/19 11:53:17;;;;;;;9.82;6.30;;;15.10;98.80;;;;;;5032402;28;20160;-66
2023/03/19 11:55:48;;;;;;;7.93;5.47;;;15.20;98.50;;;;;;5028986;28;20029;-67
2023/03/19 11:58:40;;;;;;;8.98;5.57;;;15.30;98.60;;;;;;5029187;28;20099;-66
2023/03/19 12:01:32;;;;;;;11.00;6.40;;;15.50;98.50;;;;;;5026144;28;20033;-66
2023/03/19 12:04:32;;;;;;;12.73;6.32;;;15.60;98.30;;;;;;5029661;28;20762;-66
2023/03/19 12:07:23;;;;;;;11.65;6.03;;;15.60;98.00;;;;;;5030065;28;20650;-66
2023/03/19 12:10:01;;;;;;;9.27;6.45;;;15.70;98.30;;;;;;5035392;28;20553;-65
2023/03/19 12:12:56;;;;;;;14.38;6.65;;;15.90;97.90;;;;;;5034335;28;20040;-66
2023/03/19 12:15:29;;;;;;;11.52;6.68;;;16.00;97.40;;;;;;5030195;28;20044;-66
2023/03/19 12:18:14;;;;;;;9.88;5.90;;;16.10;97.10;;;;;;5028635;28;20030;-66
2023/03/19 12:20:45;;;;;;;12.68;7.97;;;16.10;96.80;;;;;;5035499;28;20025;-66
2023/03/19 12:23:14;;;;;;;22.38;14.48;;;16.20;97.00;;;;;;5032663;28;20039;-66
2023/03/19 12:26:09;;;;;;;12.10;7.85;;;16.20;97.00;;;;;;5033399;28;20486;-66
2023/03/19 12:28:52;;;;;;;10.45;7.93;;;16.30;97.00;;;;;;5034389;28;20444;-66
2023/03/19 12:31:24;;;;;;;11.20;7.40;;;16.30;96.60;;;;;;5033815;28;20026;-66
2023/03/19 12:34:05;;;;;;;12.38;6.53;;;16.40;96.20;;;;;;5025003;28;20037;-66
2023/03/19 12:36:43;;;;;;;10.52;6.45;;;16.40;95.70;;;;;;5041234;28;20037;-66
2023/03/19 12:39:17;;;;;;;9.77;6.38;;;16.30;95.30;;;;;;5029635;28;20033;-65
2023/03/19 12:41:46;;;;;;;11.23;7.07;;;16.30;95.30;;;;;;5030190;28;20037;-66
2023/03/19 12:44:38;;;;;;;9.57;6.68;;;16.30;95.40;;;;;;5031352;28;20043;-66
2023/03/19 12:47:21;;;;;;;11.05;7.00;;;16.40;95.30;;;;;;5029988;28;20037;-66
2023/03/19 12:49:53;;;;;;;34.63;19.42;;;16.50;95.30;;;;;;5026147;28;20124;-66
2023/03/19 12:52:19;;;;;;;17.23;10.85;;;16.50;95.80;;;;;;5039731;28;20652;-66
2023/03/19 12:54:55;;;;;;;13.75;6.32;;;16.70;95.40;;;;;;5032893;28;20037;-66
2023/03/19 12:57:36;;;;;;;;;;;16.60;95.60;;;;;;5038740;28;20040;-66